FELTM KSQL-KSQL
Flight info
| Callsign | FELTM |
|---|---|
| Flight time | 0h 21m |
| Altitude | 1000 |
| Route | VFR |
| Aircraft | DA40/L-V/N |
Departure
| Time | 2026-04-25 22:16 |
|---|---|
| Airport | San Carlos Airport (KSQL) |
Arrival
| Time | 2026-04-25 22:37 |
|---|---|
| Airport | San Carlos Airport (KSQL) |
| Time | Latitude | Longitude | Altitude | Speed | Heading |
|---|---|---|---|---|---|
| 2026-04-25 21:57 | 37.51494 | -122.25146 | 7 ft | 0 kts | 139° |
| 2026-04-25 22:09 | 37.51490 | -122.25141 | 6 ft | 1 kts | 150° |
| 2026-04-25 22:09 | 37.51470 | -122.25157 | 6 ft | 3 kts | 233° |
| 2026-04-25 22:09 | 37.51462 | -122.25164 | 5 ft | 1 kts | 191° |
| 2026-04-25 22:10 | 37.51442 | -122.25149 | 5 ft | 6 kts | 132° |
| 2026-04-25 22:10 | 37.51404 | -122.25104 | 5 ft | 8 kts | 137° |
| 2026-04-25 22:10 | 37.51357 | -122.25051 | 7 ft | 8 kts | 134° |
| 2026-04-25 22:10 | 37.51316 | -122.25005 | 8 ft | 8 kts | 137° |
| 2026-04-25 22:11 | 37.51273 | -122.24956 | 8 ft | 9 kts | 138° |
| 2026-04-25 22:11 | 37.51226 | -122.24902 | 8 ft | 9 kts | 140° |
| 2026-04-25 22:11 | 37.51180 | -122.24878 | 8 ft | 6 kts | 156° |
| 2026-04-25 22:11 | 37.51157 | -122.24856 | 9 ft | 4 kts | 140° |
| 2026-04-25 22:12 | 37.51138 | -122.24835 | 9 ft | 3 kts | 139° |
| 2026-04-25 22:12 | 37.51111 | -122.24805 | 9 ft | 7 kts | 137° |
| 2026-04-25 22:12 | 37.51066 | -122.24754 | 9 ft | 10 kts | 137° |
| 2026-04-25 22:12 | 37.51028 | -122.24711 | 8 ft | 11 kts | 138° |
| 2026-04-25 22:13 | 37.50987 | -122.24665 | 6 ft | 0 kts | 138° |
| 2026-04-25 22:14 | 37.50972 | -122.24659 | 6 ft | 5 kts | 192° |
| 2026-04-25 22:15 | 37.50953 | -122.24684 | 6 ft | 2 kts | 275° |
| 2026-04-25 22:15 | 37.51012 | -122.24764 | 8 ft | 34 kts | 315° |
| 2026-04-25 22:15 | 37.51319 | -122.25098 | 47 ft | 74 kts | 311° |
| 2026-04-25 22:16 | 37.52131 | -122.25982 | 571 ft | 79 kts | 316° |
| 2026-04-25 22:16 | 37.52745 | -122.25752 | 710 ft | 110 kts | 20° |
| 2026-04-25 22:16 | 37.53402 | -122.25116 | 761 ft | 133 kts | 77° |
| 2026-04-25 22:16 | 37.52988 | -122.24121 | 692 ft | 140 kts | 134° |
| 2026-04-25 22:17 | 37.52397 | -122.23115 | 712 ft | 137 kts | 129° |
| 2026-04-25 22:17 | 37.51921 | -122.22174 | 638 ft | 122 kts | 128° |
| 2026-04-25 22:17 | 37.51493 | -122.21238 | 605 ft | 124 kts | 124° |
| 2026-04-25 22:17 | 37.51097 | -122.20334 | 557 ft | 103 kts | 142° |
| 2026-04-25 22:18 | 37.50515 | -122.20214 | 462 ft | 84 kts | 195° |
| 2026-04-25 22:18 | 37.49977 | -122.20357 | 376 ft | 71 kts | 216° |
| 2026-04-25 22:18 | 37.49569 | -122.20735 | 338 ft | 73 kts | 226° |
| 2026-04-25 22:18 | 37.49164 | -122.21193 | 399 ft | 82 kts | 231° |
| 2026-04-25 22:19 | 37.48794 | -122.21721 | 486 ft | 76 kts | 241° |
| 2026-04-25 22:19 | 37.48897 | -122.22302 | 368 ft | 83 kts | 305° |
| 2026-04-25 22:19 | 37.49320 | -122.22831 | 335 ft | 88 kts | 314° |
| 2026-04-25 22:19 | 37.49762 | -122.23358 | 237 ft | 85 kts | 313° |
| 2026-04-25 22:20 | 37.50213 | -122.23851 | 192 ft | 85 kts | 313° |
| 2026-04-25 22:20 | 37.50661 | -122.24355 | 105 ft | 88 kts | 313° |
| 2026-04-25 22:20 | 37.51104 | -122.24860 | 14 ft | 79 kts | 309° |
| 2026-04-25 22:20 | 37.51514 | -122.25323 | 75 ft | 85 kts | 323° |
| 2026-04-25 22:21 | 37.51990 | -122.25771 | 323 ft | 86 kts | 320° |
| 2026-04-25 22:21 | 37.52552 | -122.25728 | 562 ft | 106 kts | 49° |
| 2026-04-25 22:21 | 37.53057 | -122.24961 | 646 ft | 125 kts | 57° |
| 2026-04-25 22:21 | 37.53362 | -122.24044 | 765 ft | 108 kts | 123° |
| 2026-04-25 22:22 | 37.52945 | -122.23288 | 686 ft | 101 kts | 140° |
| 2026-04-25 22:22 | 37.52561 | -122.22575 | 583 ft | 97 kts | 138° |
| 2026-04-25 22:22 | 37.52182 | -122.21891 | 623 ft | 96 kts | 135° |
| 2026-04-25 22:22 | 37.51840 | -122.21107 | 693 ft | 107 kts | 131° |
| 2026-04-25 22:23 | 37.51443 | -122.20293 | 765 ft | 114 kts | 135° |
| 2026-04-25 22:23 | 37.51018 | -122.19507 | 785 ft | 102 kts | 134° |
| 2026-04-25 22:23 | 37.50631 | -122.18772 | 767 ft | 105 kts | 137° |
| 2026-04-25 22:23 | 37.50177 | -122.18001 | 631 ft | 109 kts | 145° |
| 2026-04-25 22:24 | 37.49776 | -122.17875 | 627 ft | 80 kts | 212° |
| 2026-04-25 22:24 | 37.49333 | -122.18240 | 606 ft | 78 kts | 224° |
| 2026-04-25 22:24 | 37.48885 | -122.18677 | 581 ft | 84 kts | 229° |
| 2026-04-25 22:24 | 37.48464 | -122.19190 | 529 ft | 82 kts | 236° |
| 2026-04-25 22:25 | 37.48112 | -122.19767 | 624 ft | 80 kts | 248° |
| 2026-04-25 22:25 | 37.47808 | -122.20383 | 550 ft | 87 kts | 250° |
| 2026-04-25 22:25 | 37.47765 | -122.21058 | 579 ft | 80 kts | 306° |
| 2026-04-25 22:25 | 37.48229 | -122.21638 | 511 ft | 98 kts | 316° |
| 2026-04-25 22:26 | 37.48692 | -122.22145 | 428 ft | 81 kts | 317° |
| 2026-04-25 22:26 | 37.49107 | -122.22590 | 334 ft | 81 kts | 310° |
| 2026-04-25 22:26 | 37.49530 | -122.23059 | 244 ft | 82 kts | 315° |
| 2026-04-25 22:26 | 37.49921 | -122.23535 | 139 ft | 74 kts | 315° |
| 2026-04-25 22:27 | 37.50283 | -122.23944 | 88 ft | 65 kts | 314° |
| 2026-04-25 22:27 | 37.50631 | -122.24312 | 55 ft | 59 kts | 313° |
| 2026-04-25 22:27 | 37.50928 | -122.24659 | 11 ft | 59 kts | 313° |
| 2026-04-25 22:27 | 37.51226 | -122.24992 | 32 ft | 67 kts | 315° |
| 2026-04-25 22:28 | 37.51620 | -122.25448 | 172 ft | 84 kts | 313° |
| 2026-04-25 22:28 | 37.52091 | -122.25953 | 416 ft | 91 kts | 317° |
| 2026-04-25 22:28 | 37.52614 | -122.26413 | 695 ft | 103 kts | 348° |
| 2026-04-25 22:28 | 37.53196 | -122.25741 | 770 ft | 130 kts | 58° |
| 2026-04-25 22:29 | 37.53717 | -122.24739 | 832 ft | 142 kts | 59° |
| 2026-04-25 22:29 | 37.53545 | -122.23684 | 983 ft | 134 kts | 136° |
| 2026-04-25 22:29 | 37.52896 | -122.22732 | 899 ft | 148 kts | 139° |
| 2026-04-25 22:30 | 37.51653 | -122.20665 | 807 ft | 151 kts | 131° |
| 2026-04-25 22:30 | 37.50998 | -122.19600 | 602 ft | 154 kts | 153° |
| 2026-04-25 22:30 | 37.50224 | -122.20093 | 649 ft | 132 kts | 229° |
| 2026-04-25 22:30 | 37.49782 | -122.20646 | 592 ft | 134 kts | 229° |
| 2026-04-25 22:31 | 37.48927 | -122.21815 | 461 ft | 135 kts | 239° |
| 2026-04-25 22:31 | 37.49200 | -122.22770 | 416 ft | 138 kts | 316° |
| 2026-04-25 22:31 | 37.49958 | -122.23583 | 223 ft | 145 kts | 316° |
| 2026-04-25 22:31 | 37.50712 | -122.24426 | 39 ft | 145 kts | 315° |
| 2026-04-25 22:32 | 37.51293 | -122.25078 | 112 ft | 88 kts | 308° |
| 2026-04-25 22:32 | 37.51796 | -122.25634 | 270 ft | 99 kts | 311° |
| 2026-04-25 22:32 | 37.52480 | -122.26006 | 446 ft | 119 kts | 26° |
| 2026-04-25 22:32 | 37.53039 | -122.25207 | 637 ft | 129 kts | 58° |
| 2026-04-25 22:33 | 37.53544 | -122.24214 | 770 ft | 134 kts | 62° |
| 2026-04-25 22:33 | 37.53443 | -122.23147 | 814 ft | 135 kts | 134° |
| 2026-04-25 22:33 | 37.52830 | -122.22230 | 858 ft | 138 kts | 143° |
| 2026-04-25 22:33 | 37.52105 | -122.21425 | 832 ft | 145 kts | 134° |
| 2026-04-25 22:34 | 37.51454 | -122.20437 | 749 ft | 151 kts | 137° |
| 2026-04-25 22:34 | 37.50776 | -122.19414 | 621 ft | 156 kts | 135° |
| 2026-04-25 22:34 | 37.49970 | -122.19244 | 830 ft | 119 kts | 226° |
| 2026-04-25 22:34 | 37.49331 | -122.19948 | 784 ft | 127 kts | 233° |
| 2026-04-25 22:35 | 37.48656 | -122.20694 | 719 ft | 126 kts | 222° |
| 2026-04-25 22:35 | 37.48104 | -122.21349 | 666 ft | 93 kts | 266° |
| 2026-04-25 22:35 | 37.48468 | -122.21936 | 581 ft | 89 kts | 323° |
| 2026-04-25 22:35 | 37.48892 | -122.22357 | 436 ft | 69 kts | 316° |
| 2026-04-25 22:36 | 37.49235 | -122.22763 | 377 ft | 68 kts | 314° |
| 2026-04-25 22:36 | 37.49594 | -122.23162 | 337 ft | 72 kts | 314° |
| 2026-04-25 22:36 | 37.49976 | -122.23576 | 291 ft | 69 kts | 315° |
| 2026-04-25 22:36 | 37.50323 | -122.23971 | 222 ft | 67 kts | 311° |
| 2026-04-25 22:37 | 37.50670 | -122.24361 | 114 ft | 67 kts | 312° |
| 2026-04-25 22:37 | 37.50997 | -122.24737 | 14 ft | 54 kts | 313° |
| 2026-04-25 22:37 | 37.51199 | -122.24971 | 7 ft | 21 kts | 317° |
| 2026-04-25 22:37 | 37.51247 | -122.25015 | 8 ft | 0 kts | 355° |
| 2026-04-25 22:38 | 37.51278 | -122.24994 | 8 ft | 5 kts | 343° |
| 2026-04-25 22:38 | 37.51337 | -122.25060 | 7 ft | 14 kts | 317° |
| 2026-04-25 22:38 | 37.51409 | -122.25142 | 5 ft | 11 kts | 317° |
| 2026-04-25 22:38 | 37.51443 | -122.25179 | 5 ft | 0 kts | 327° |
| 2026-04-25 22:39 | 37.51470 | -122.25165 | 6 ft | 5 kts | 28° |
| 2026-04-25 22:39 | 37.51480 | -122.25160 | 6 ft | 0 kts | 27° |